createdAt,value
2018-08-16T00:00:22.578Z,18.80
2018-08-16T00:02:51.306Z,18.80
2018-08-16T00:05:20.014Z,18.80
2018-08-16T00:07:48.711Z,18.80
2018-08-16T00:10:18.579Z,18.80
2018-08-16T00:12:48.592Z,18.80
2018-08-16T00:15:18.531Z,18.70
2018-08-16T00:17:47.399Z,18.70
2018-08-16T00:20:16.300Z,18.60
2018-08-16T00:22:45.401Z,18.60
2018-08-16T00:25:14.627Z,18.60
2018-08-16T00:27:43.360Z,18.60
2018-08-16T00:30:13.437Z,18.50
2018-08-16T00:32:42.582Z,18.40
2018-08-16T00:35:11.339Z,18.40
2018-08-16T00:37:40.036Z,18.20
2018-08-16T00:40:10.728Z,18.20
2018-08-16T00:42:39.452Z,18.20
2018-08-16T00:45:09.127Z,18.10
2018-08-16T00:47:37.863Z,18.10
2018-08-16T00:50:09.024Z,18.10
2018-08-16T00:52:37.725Z,18.10
2018-08-16T00:55:07.041Z,18.10
2018-08-16T00:57:36.062Z,18.10
2018-08-16T01:00:05.835Z,18.10
2018-08-16T01:02:34.539Z,18.10
2018-08-16T01:05:03.307Z,17.90
2018-08-16T01:07:31.981Z,17.80
2018-08-16T01:10:00.665Z,17.90
2018-08-16T01:12:29.423Z,17.90
2018-08-16T01:14:58.214Z,17.90
2018-08-16T01:17:26.866Z,17.90
2018-08-16T01:19:55.514Z,17.90
2018-08-16T01:22:24.236Z,17.90
2018-08-16T01:24:52.923Z,17.80
2018-08-16T01:27:21.653Z,17.80
2018-08-16T01:29:59.850Z,17.80
2018-08-16T01:32:28.512Z,17.80
2018-08-16T01:34:57.146Z,17.70
2018-08-16T01:37:25.846Z,17.60
2018-08-16T01:39:54.512Z,17.60
2018-08-16T01:42:23.135Z,17.60
2018-08-16T01:44:51.779Z,17.50
2018-08-16T01:47:20.455Z,17.50
2018-08-16T01:49:49.111Z,17.40
2018-08-16T01:52:17.838Z,17.40
2018-08-16T01:54:46.486Z,17.40
2018-08-16T01:57:15.126Z,17.50
2018-08-16T01:59:43.801Z,17.40
2018-08-16T02:02:12.498Z,17.30
2018-08-16T02:04:41.135Z,17.20
2018-08-16T02:07:09.835Z,17.20
2018-08-16T02:09:38.531Z,17.20
2018-08-16T02:12:07.523Z,17.20
2018-08-16T02:14:36.167Z,17.10
2018-08-16T02:17:04.841Z,17.10
2018-08-16T02:19:33.479Z,17.00
2018-08-16T02:22:02.179Z,17.00
2018-08-16T02:24:30.810Z,16.90
2018-08-16T02:26:59.435Z,16.90
2018-08-16T02:29:28.111Z,16.90
2018-08-16T02:31:56.751Z,16.90
2018-08-16T02:34:25.358Z,16.90
2018-08-16T02:36:54.052Z,16.80
2018-08-16T02:39:22.675Z,16.70
2018-08-16T02:41:51.358Z,16.70
2018-08-16T02:44:19.982Z,16.60
2018-08-16T02:46:48.667Z,16.60
2018-08-16T02:49:17.350Z,16.60
2018-08-16T02:51:45.970Z,16.60
2018-08-16T02:54:14.628Z,16.70
2018-08-16T02:56:43.226Z,16.70
2018-08-16T02:59:11.858Z,16.60
2018-08-16T03:01:40.490Z,16.70
2018-08-16T03:04:09.197Z,16.70
2018-08-16T03:06:37.967Z,16.70
2018-08-16T03:09:08.386Z,16.70
2018-08-16T03:11:37.094Z,16.70
2018-08-16T03:14:05.836Z,16.70
2018-08-16T03:16:34.542Z,16.80
2018-08-16T03:19:03.243Z,16.80
2018-08-16T03:21:31.862Z,16.80
2018-08-16T03:24:00.547Z,16.70
2018-08-16T03:26:29.214Z,16.70
2018-08-16T03:28:57.849Z,16.60
2018-08-16T03:31:26.583Z,16.60
2018-08-16T03:33:55.263Z,16.60
2018-08-16T03:36:24.230Z,16.60
2018-08-16T03:38:52.866Z,16.50
2018-08-16T03:41:21.523Z,16.40
2018-08-16T03:43:50.207Z,16.30
2018-08-16T03:46:18.858Z,16.20
2018-08-16T03:48:47.519Z,16.20
2018-08-16T03:51:16.135Z,16.20
2018-08-16T03:53:44.795Z,16.20
2018-08-16T03:56:13.477Z,16.20
2018-08-16T03:58:42.086Z,16.10
2018-08-16T04:01:10.691Z,16.10
2018-08-16T04:03:39.363Z,16.10
2018-08-16T04:06:08.167Z,16.10
2018-08-16T04:08:36.854Z,16.10
2018-08-16T04:11:05.446Z,16.20
2018-08-16T04:13:34.051Z,16.20
2018-08-16T04:16:02.861Z,16.20
2018-08-16T04:18:31.520Z,16.20
2018-08-16T04:21:01.024Z,16.20
2018-08-16T04:23:30.415Z,16.10
2018-08-16T04:25:59.050Z,16.00
2018-08-16T04:29:57.551Z,15.90
2018-08-16T04:32:26.775Z,15.90
2018-08-16T04:34:55.464Z,15.90
2018-08-16T04:37:24.054Z,15.90
2018-08-16T04:39:52.694Z,15.80
2018-08-16T04:42:21.308Z,15.80
2018-08-16T04:44:49.914Z,15.80
2018-08-16T04:47:18.576Z,15.90
2018-08-16T04:49:47.288Z,15.90
2018-08-16T04:52:15.963Z,16.00
2018-08-16T04:54:44.674Z,16.10
2018-08-16T04:57:13.292Z,16.10
2018-08-16T04:59:41.975Z,16.10
2018-08-16T05:02:10.655Z,16.20
2018-08-16T05:04:39.295Z,16.20
2018-08-16T05:07:07.971Z,16.30
2018-08-16T05:09:36.718Z,16.30
2018-08-16T05:12:05.450Z,16.30
2018-08-16T05:14:34.093Z,16.40
2018-08-16T05:17:02.828Z,16.40
2018-08-16T05:19:31.699Z,16.40
2018-08-16T05:22:00.435Z,16.40
2018-08-16T05:24:29.035Z,16.30
2018-08-16T05:26:57.766Z,16.30
2018-08-16T05:29:26.411Z,16.20
2018-08-16T05:31:55.091Z,16.20
2018-08-16T05:34:23.802Z,16.10
2018-08-16T05:36:52.502Z,16.10
2018-08-16T05:39:21.123Z,16.10
2018-08-16T05:41:49.826Z,16.20
2018-08-16T05:44:18.544Z,16.30
2018-08-16T05:46:47.278Z,16.30
2018-08-16T05:49:16.030Z,16.40
2018-08-16T05:51:44.676Z,16.40
2018-08-16T05:54:13.397Z,16.40
2018-08-16T05:56:42.037Z,16.50
2018-08-16T05:59:10.784Z,16.40
2018-08-16T06:01:39.418Z,16.40
2018-08-16T06:04:08.070Z,16.50
2018-08-16T06:06:36.790Z,16.50
2018-08-16T06:09:08.153Z,16.50
2018-08-16T06:11:36.857Z,16.50
2018-08-16T06:14:07.003Z,16.60
2018-08-16T06:16:35.666Z,16.60
2018-08-16T06:19:04.447Z,16.60
2018-08-16T06:21:33.128Z,16.60
2018-08-16T06:24:01.793Z,16.60
2018-08-16T06:26:30.419Z,16.60
2018-08-16T06:28:59.082Z,16.60
2018-08-16T06:31:27.731Z,16.60
2018-08-16T06:33:56.470Z,16.60
2018-08-16T06:36:25.154Z,16.60
2018-08-16T06:38:53.904Z,16.60
2018-08-16T06:41:22.454Z,16.70
2018-08-16T06:43:51.083Z,16.70
2018-08-16T06:46:19.859Z,16.70
2018-08-16T06:48:48.541Z,16.70
2018-08-16T06:51:17.227Z,16.70
2018-08-16T06:53:45.796Z,16.60
2018-08-16T06:56:14.494Z,16.60
2018-08-16T06:58:43.102Z,16.60
2018-08-16T07:01:12.359Z,16.60
2018-08-16T07:03:41.066Z,16.60
2018-08-16T07:06:09.646Z,16.60
2018-08-16T07:08:38.331Z,16.60
2018-08-16T07:11:07.105Z,16.70
2018-08-16T07:13:35.786Z,16.70
2018-08-16T07:16:04.430Z,16.70
2018-08-16T07:18:33.159Z,16.70
2018-08-16T07:21:01.760Z,16.70
2018-08-16T07:23:30.471Z,16.80
2018-08-16T07:25:59.041Z,16.80
2018-08-16T07:28:27.727Z,16.80
2018-08-16T07:30:56.364Z,16.90
2018-08-16T07:33:25.047Z,16.90
2018-08-16T07:35:53.743Z,16.90
2018-08-16T07:38:22.438Z,16.80
2018-08-16T07:40:51.011Z,16.80
2018-08-16T07:43:19.742Z,16.90
2018-08-16T07:45:48.573Z,17.10
2018-08-16T07:48:17.138Z,17.40
2018-08-16T07:50:45.909Z,17.90
2018-08-16T07:53:15.146Z,18.10
2018-08-16T07:55:43.947Z,18.40
2018-08-16T07:58:12.649Z,18.70
2018-08-16T08:00:41.359Z,19.00
2018-08-16T08:03:10.014Z,19.40
2018-08-16T08:05:38.727Z,19.70
2018-08-16T08:08:07.534Z,20.00
2018-08-16T08:10:36.463Z,20.20
2018-08-16T08:13:05.206Z,20.40
2018-08-16T08:15:33.976Z,20.60
2018-08-16T08:18:02.674Z,20.70
2018-08-16T08:20:31.352Z,20.80
2018-08-16T08:23:00.042Z,21.00
2018-08-16T08:25:28.826Z,21.20
2018-08-16T08:27:57.506Z,21.30
2018-08-16T08:30:26.208Z,21.60
2018-08-16T08:32:54.922Z,21.90
2018-08-16T08:35:23.671Z,22.20
2018-08-16T08:38:12.718Z,22.40
2018-08-16T08:40:41.645Z,22.50
2018-08-16T08:43:10.440Z,22.60
2018-08-16T08:45:39.155Z,22.90
2018-08-16T08:48:07.943Z,23.00
2018-08-16T08:50:36.610Z,23.20
2018-08-16T08:53:32.974Z,23.30
2018-08-16T08:56:12.662Z,23.40
2018-08-16T08:58:50.950Z,23.50
2018-08-16T09:01:20.498Z,23.50
2018-08-16T09:03:49.366Z,23.50
2018-08-16T09:06:18.128Z,23.60
2018-08-16T09:08:46.982Z,23.70
2018-08-16T09:11:26.711Z,23.80
2018-08-16T09:14:07.716Z,23.90
2018-08-16T09:16:39.459Z,24.20
2018-08-16T09:19:08.991Z,24.20
2018-08-16T09:21:37.877Z,24.10
2018-08-16T09:24:06.581Z,24.30
2018-08-16T09:26:40.591Z,24.40
2018-08-16T09:30:23.458Z,24.50
2018-08-16T09:33:03.125Z,24.50
2018-08-16T09:35:31.773Z,24.50
2018-08-16T09:38:00.601Z,24.40
2018-08-16T09:40:29.358Z,24.60
2018-08-16T09:42:58.063Z,24.70
2018-08-16T09:45:37.654Z,24.50
2018-08-16T09:48:17.372Z,24.50
2018-08-16T09:50:46.088Z,24.80
2018-08-16T09:53:14.729Z,24.70
2018-08-16T09:55:43.398Z,24.90
2018-08-16T09:58:12.099Z,25.10
2018-08-16T10:00:45.915Z,25.20
2018-08-16T10:03:14.586Z,25.30
2018-08-16T10:05:43.370Z,25.30
2018-08-16T10:08:12.026Z,25.30
2018-08-16T10:10:40.655Z,25.40
2018-08-16T10:13:09.446Z,25.60
2018-08-16T10:15:38.104Z,25.80
2018-08-16T10:18:06.908Z,25.90
2018-08-16T10:20:35.551Z,26.10
2018-08-16T10:23:04.240Z,26.10
2018-08-16T10:25:32.879Z,26.30
2018-08-16T10:28:02.583Z,26.40
2018-08-16T10:30:31.338Z,26.50
2018-08-16T10:32:59.924Z,26.60
2018-08-16T10:35:28.527Z,26.70
2018-08-16T10:37:57.334Z,26.80
2018-08-16T10:40:27.596Z,26.90
2018-08-16T10:42:56.316Z,26.80
2018-08-16T10:45:25.772Z,26.70
2018-08-16T10:47:54.497Z,26.80
2018-08-16T10:50:23.163Z,26.80
2018-08-16T10:52:51.982Z,26.80
2018-08-16T10:55:20.623Z,26.90
2018-08-16T10:57:49.219Z,27.10
2018-08-16T11:00:27.583Z,27.10
2018-08-16T11:02:56.231Z,27.00
2018-08-16T11:05:24.928Z,27.00
2018-08-16T11:07:54.221Z,27.10
2018-08-16T11:10:22.860Z,27.10
2018-08-16T11:12:51.545Z,27.10
2018-08-16T11:15:20.287Z,27.20
2018-08-16T11:17:48.940Z,27.20
2018-08-16T11:20:17.663Z,27.20
2018-08-16T11:22:46.333Z,27.30
2018-08-16T11:25:15.187Z,27.40
2018-08-16T11:27:43.905Z,27.40
2018-08-16T11:30:12.639Z,27.40
2018-08-16T11:32:41.379Z,27.40
2018-08-16T11:35:10.140Z,27.30
2018-08-16T11:37:38.906Z,27.30
2018-08-16T11:40:07.920Z,27.30
2018-08-16T11:42:36.615Z,27.30
2018-08-16T11:45:05.931Z,27.30
2018-08-16T11:47:34.675Z,27.40
2018-08-16T11:50:03.432Z,27.50
2018-08-16T11:52:32.084Z,27.60
2018-08-16T11:55:00.810Z,27.70
2018-08-16T11:57:29.617Z,27.90
2018-08-16T11:59:58.277Z,28.00
2018-08-16T12:02:26.925Z,28.00
2018-08-16T12:04:55.556Z,28.10
2018-08-16T12:07:24.187Z,28.10
2018-08-16T12:09:52.882Z,28.10
2018-08-16T12:12:21.502Z,28.10
2018-08-16T12:14:50.127Z,28.20
2018-08-16T12:17:18.871Z,28.30
2018-08-16T12:19:47.575Z,28.30
2018-08-16T12:22:16.251Z,28.30
2018-08-16T12:24:44.878Z,28.40
2018-08-16T12:27:13.679Z,28.30
2018-08-16T12:29:42.479Z,28.40
2018-08-16T12:32:11.191Z,28.40
2018-08-16T12:34:39.849Z,28.40
2018-08-16T12:37:08.623Z,28.50
2018-08-16T12:39:37.284Z,28.50
2018-08-16T12:42:06.183Z,28.50
2018-08-16T12:44:34.795Z,28.40
2018-08-16T12:47:03.459Z,28.40
2018-08-16T12:49:32.151Z,28.30
2018-08-16T12:52:00.903Z,28.50
2018-08-16T12:54:29.551Z,28.70
2018-08-16T12:56:58.212Z,28.80
2018-08-16T12:59:26.894Z,29.00
2018-08-16T13:01:55.623Z,29.20
2018-08-16T13:04:24.230Z,29.10
2018-08-16T13:06:52.906Z,29.10
2018-08-16T13:09:21.632Z,29.30
2018-08-16T13:11:50.294Z,29.40
2018-08-16T13:14:18.955Z,29.40
2018-08-16T13:16:48.011Z,29.20
2018-08-16T13:19:16.710Z,29.10
2018-08-16T13:21:45.398Z,29.10
2018-08-16T13:24:14.171Z,29.00
2018-08-16T13:26:42.818Z,29.00
2018-08-16T13:29:11.439Z,29.00
2018-08-16T13:31:40.254Z,29.00
2018-08-16T13:34:08.962Z,29.10
2018-08-16T13:36:37.659Z,29.10
2018-08-16T13:39:09.620Z,29.10
2018-08-16T13:41:38.347Z,29.10
2018-08-16T13:44:07.020Z,29.20
2018-08-16T13:46:35.574Z,29.20
2018-08-16T13:49:04.198Z,29.20
2018-08-16T13:51:32.892Z,29.20
2018-08-16T13:54:01.670Z,29.30
2018-08-16T13:56:30.671Z,29.40
2018-08-16T13:59:00.159Z,29.40
2018-08-16T14:01:28.890Z,29.40
2018-08-16T14:03:57.857Z,29.30
2018-08-16T14:06:26.520Z,29.30
2018-08-16T14:08:55.314Z,29.40
2018-08-16T14:11:24.006Z,29.30
2018-08-16T14:13:52.642Z,29.30
2018-08-16T14:16:21.299Z,29.20
2018-08-16T14:18:50.009Z,29.20
2018-08-16T14:21:18.795Z,29.20
2018-08-16T14:23:47.404Z,29.30
2018-08-16T14:26:16.190Z,29.30
2018-08-16T14:28:44.873Z,29.40
2018-08-16T14:31:13.668Z,29.40
2018-08-16T14:33:42.435Z,29.50
2018-08-16T14:36:11.156Z,29.40
2018-08-16T14:38:45.018Z,29.30
2018-08-16T14:41:14.218Z,29.30
2018-08-16T14:43:42.946Z,29.30
2018-08-16T14:46:11.668Z,29.40
2018-08-16T14:48:40.379Z,29.50
2018-08-16T14:51:08.999Z,29.50
2018-08-16T14:53:37.682Z,29.60
2018-08-16T14:56:06.740Z,29.60
2018-08-16T14:58:35.403Z,29.50
2018-08-16T15:01:04.105Z,29.50
2018-08-16T15:03:32.811Z,29.50
2018-08-16T15:06:01.471Z,29.60
2018-08-16T15:08:30.091Z,29.70
2018-08-16T15:10:58.778Z,29.90
2018-08-16T15:13:27.458Z,29.80
2018-08-16T15:15:56.211Z,29.80
2018-08-16T15:18:24.873Z,29.70
2018-08-16T15:20:53.523Z,29.70
2018-08-16T15:23:22.211Z,29.60
2018-08-16T15:25:50.955Z,29.60
2018-08-16T15:28:20.371Z,29.70
2018-08-16T15:30:49.142Z,29.60
2018-08-16T15:33:17.883Z,29.50
2018-08-16T15:35:46.541Z,29.50
2018-08-16T15:38:15.243Z,29.60
2018-08-16T15:40:43.908Z,29.60
2018-08-16T15:43:12.570Z,29.60
2018-08-16T15:45:41.308Z,29.60
2018-08-16T15:48:14.932Z,29.70
2018-08-16T15:50:44.742Z,29.80
2018-08-16T15:53:13.409Z,29.80
2018-08-16T15:55:42.146Z,29.70
2018-08-16T15:58:11.627Z,29.70
2018-08-16T16:02:09.597Z,29.60
2018-08-16T16:04:38.221Z,29.40
2018-08-16T16:07:06.992Z,29.00
2018-08-16T16:09:44.875Z,29.00
2018-08-16T16:12:13.516Z,29.00
2018-08-16T16:14:42.194Z,28.90
2018-08-16T16:17:10.911Z,28.90
2018-08-16T16:19:39.605Z,28.80
2018-08-16T16:22:08.412Z,28.60
2018-08-16T16:24:37.150Z,28.40
2018-08-16T16:27:05.874Z,28.30
2018-08-16T16:29:34.490Z,28.20
2018-08-16T16:32:03.159Z,28.00
2018-08-16T16:34:31.870Z,28.00
2018-08-16T16:37:00.634Z,27.90
2018-08-16T16:39:34.352Z,27.80
2018-08-16T16:42:03.039Z,27.70
2018-08-16T16:44:31.776Z,27.60
2018-08-16T16:47:00.458Z,27.50
2018-08-16T16:49:29.156Z,27.40
2018-08-16T16:51:57.901Z,27.30
2018-08-16T16:54:26.584Z,27.30
2018-08-16T16:56:55.263Z,27.30
2018-08-16T16:59:23.943Z,27.20
2018-08-16T17:01:52.627Z,27.20
2018-08-16T17:04:21.334Z,27.10
2018-08-16T17:06:50.063Z,27.00
2018-08-16T17:09:18.919Z,27.00
2018-08-16T17:11:47.620Z,26.90
2018-08-16T17:14:16.275Z,26.90
2018-08-16T17:16:44.942Z,26.80
2018-08-16T17:19:13.623Z,26.70
2018-08-16T17:21:42.378Z,26.60
2018-08-16T17:24:11.046Z,26.60
2018-08-16T17:26:39.819Z,26.60
2018-08-16T17:29:08.541Z,26.40
2018-08-16T17:31:37.253Z,26.30
2018-08-16T17:34:05.915Z,26.20
2018-08-16T17:36:34.683Z,26.20
2018-08-16T17:39:04.858Z,26.10
2018-08-16T17:41:33.551Z,26.10
2018-08-16T17:44:02.250Z,26.00
2018-08-16T17:46:30.910Z,25.90
2018-08-16T17:48:59.604Z,25.80
2018-08-16T17:51:28.243Z,25.70
2018-08-16T17:53:57.011Z,25.70
2018-08-16T17:56:26.042Z,25.70
2018-08-16T17:58:54.794Z,25.60
2018-08-16T18:01:23.431Z,25.60
2018-08-16T18:03:52.336Z,25.50
2018-08-16T18:06:21.088Z,25.40
2018-08-16T18:08:49.642Z,25.40
2018-08-16T18:11:18.239Z,25.30
2018-08-16T18:13:46.791Z,25.30
2018-08-16T18:16:15.595Z,25.10
2018-08-16T18:18:45.419Z,25.00
2018-08-16T18:21:14.239Z,24.80
2018-08-16T18:23:43.055Z,24.80
2018-08-16T18:26:11.873Z,24.80
2018-08-16T18:28:40.649Z,24.80
2018-08-16T18:31:09.380Z,24.80
2018-08-16T18:33:38.141Z,24.70
2018-08-16T18:36:07.033Z,24.70
2018-08-16T18:38:35.737Z,24.60
2018-08-16T18:41:04.563Z,24.60
2018-08-16T18:43:33.347Z,24.40
2018-08-16T18:46:02.186Z,24.20
2018-08-16T18:48:30.935Z,24.00
2018-08-16T18:50:59.902Z,24.00
2018-08-16T18:53:28.757Z,24.00
2018-08-16T18:55:57.446Z,24.00
2018-08-16T18:58:26.205Z,23.90
2018-08-16T19:00:55.042Z,23.90
2018-08-16T19:03:23.915Z,23.80
2018-08-16T19:05:52.728Z,23.60
2018-08-16T19:08:21.578Z,23.60
2018-08-16T19:10:50.319Z,23.50
2018-08-16T19:13:19.140Z,23.50
2018-08-16T19:15:47.873Z,23.50
2018-08-16T19:18:16.609Z,23.40
2018-08-16T19:20:45.363Z,23.40
2018-08-16T19:23:14.095Z,23.20
2018-08-16T19:25:42.887Z,23.20
2018-08-16T19:28:11.762Z,23.10
2018-08-16T19:30:45.556Z,23.10
2018-08-16T19:33:14.390Z,23.00
2018-08-16T19:35:43.234Z,22.90
2018-08-16T19:38:11.943Z,22.80
2018-08-16T19:40:45.684Z,22.80
2018-08-16T19:43:14.390Z,22.70
2018-08-16T19:45:43.135Z,22.70
2018-08-16T19:48:11.955Z,22.60
2018-08-16T19:50:40.675Z,22.70
2018-08-16T19:53:09.467Z,22.70
2018-08-16T19:55:38.635Z,22.70
2018-08-16T19:58:07.544Z,22.60
2018-08-16T20:00:36.134Z,22.60
2018-08-16T20:03:04.996Z,22.60
2018-08-16T20:05:33.758Z,22.60
2018-08-16T20:08:02.547Z,22.50
2018-08-16T20:10:44.939Z,22.40
2018-08-16T20:13:13.806Z,22.40
2018-08-16T20:15:42.548Z,22.40
2018-08-16T20:18:11.348Z,22.40
2018-08-16T20:20:40.079Z,22.40
2018-08-16T20:23:08.864Z,22.40
2018-08-16T20:25:37.603Z,22.40
2018-08-16T20:28:06.391Z,22.40
2018-08-16T20:30:35.210Z,22.40
2018-08-16T20:33:04.002Z,22.40
2018-08-16T20:35:32.809Z,22.40
2018-08-16T20:38:01.683Z,22.40
2018-08-16T20:40:30.667Z,22.40
2018-08-16T20:42:59.448Z,22.40
2018-08-16T20:45:28.291Z,22.30
2018-08-16T20:47:57.099Z,22.30
2018-08-16T20:50:26.103Z,22.20
2018-08-16T20:52:54.943Z,22.20
2018-08-16T20:55:23.661Z,22.20
2018-08-16T20:57:52.438Z,22.10
2018-08-16T21:00:21.169Z,22.10
2018-08-16T21:02:49.844Z,22.10
2018-08-16T21:05:18.572Z,22.10
2018-08-16T21:07:47.323Z,22.10
2018-08-16T21:10:16.079Z,22.10
2018-08-16T21:12:44.824Z,22.00
2018-08-16T21:15:13.575Z,21.90
2018-08-16T21:17:42.440Z,22.00
2018-08-16T21:20:11.394Z,22.00
2018-08-16T21:22:40.155Z,22.00
2018-08-16T21:25:08.934Z,22.00
2018-08-16T21:27:37.684Z,22.00
2018-08-16T21:30:06.939Z,22.00
2018-08-16T21:32:35.788Z,22.00
2018-08-16T21:35:04.556Z,22.00
2018-08-16T21:37:33.319Z,22.00
2018-08-16T21:40:02.105Z,21.90
2018-08-16T21:42:30.838Z,21.80
2018-08-16T21:44:59.558Z,21.80
2018-08-16T21:47:28.268Z,21.80
2018-08-16T21:49:56.971Z,21.70
2018-08-16T21:52:25.724Z,21.70
2018-08-16T21:54:54.487Z,21.70
2018-08-16T21:57:23.180Z,21.70
2018-08-16T21:59:51.931Z,21.70
2018-08-16T22:02:20.653Z,21.70
2018-08-16T22:04:49.418Z,21.80
2018-08-16T22:08:22.194Z,21.80
2018-08-16T22:13:53.454Z,21.60
2018-08-16T22:16:22.229Z,21.50
2018-08-16T22:18:50.952Z,21.60
2018-08-16T22:21:19.664Z,21.60
2018-08-16T22:23:48.399Z,21.60
2018-08-16T22:26:17.220Z,21.60
2018-08-16T22:28:45.871Z,21.60
2018-08-16T22:31:14.633Z,21.60
2018-08-16T22:33:43.403Z,21.60
2018-08-16T22:36:12.162Z,21.50
2018-08-16T22:38:41.052Z,21.50
2018-08-16T22:41:09.795Z,21.40
2018-08-16T22:43:38.531Z,21.40
2018-08-16T22:46:07.322Z,21.40
2018-08-16T22:48:36.073Z,21.30
2018-08-16T22:51:04.823Z,21.40
2018-08-16T22:53:33.572Z,21.30
2018-08-16T22:56:02.351Z,21.30
2018-08-16T22:58:31.163Z,21.30
2018-08-16T23:00:59.891Z,21.20
2018-08-16T23:03:28.662Z,21.10
2018-08-16T23:05:57.378Z,21.10
2018-08-16T23:08:26.110Z,21.10
2018-08-16T23:10:54.813Z,21.10
2018-08-16T23:13:23.517Z,21.20
2018-08-16T23:15:52.294Z,21.10
2018-08-16T23:18:21.019Z,21.10
2018-08-16T23:20:49.731Z,21.10
2018-08-16T23:23:18.515Z,21.10
2018-08-16T23:25:47.333Z,21.10
2018-08-16T23:28:16.040Z,20.90
2018-08-16T23:30:49.927Z,20.90
2018-08-16T23:33:18.696Z,20.90
2018-08-16T23:35:47.426Z,20.80
2018-08-16T23:38:16.115Z,20.80
2018-08-16T23:40:44.839Z,20.80
2018-08-16T23:43:13.566Z,20.60
2018-08-16T23:45:42.331Z,20.60
2018-08-16T23:48:22.003Z,20.50
2018-08-16T23:50:50.696Z,20.60
2018-08-16T23:53:19.392Z,20.60
2018-08-16T23:55:48.152Z,20.70
2018-08-16T23:58:16.911Z,20.70
